Noble Bob Douglas — D5AJ7 — position and weather

sailwx.info

Track history (hours):
 
Tides and Currents Weather Stations Pressure Air Temp Water Temp Dewpoint Dewpoint Depression Visibility Wind Speed Wind Dir Waves Ship Positions

Noble Bob Douglas

Last reported at 2018-Jan-05 09:37 UTC. Time now 2018-Jan-22 12:35 UTC.
Position N 27°46' W 090°24'.
Warning: this ship's position is 17 days out of date.

Length 229 m; draft 11 m.

Type: Other ship. MMSI: 636015383.

Date/timePositionNaut miles runAvg speedWind from/ knotsBaromVisibWave heightAir tempDewpointWater temp
2018-Jan-05 09:37N 27°46' W 090°24'1 7.8
2018-Jan-05 09:29N 27°45' W 090°25'4 7.9
2018-Jan-05 08:59N 27°45' W 090°30'4 8.0
2018-Jan-05 08:29N 27°44' W 090°34'4 8.0
2018-Jan-05 07:59N 27°43' W 090°38'4 8.0
2018-Jan-05 07:30N 27°42' W 090°43'4 8.1
2018-Jan-05 07:00N 27°42' W 090°47'4 8.1
2018-Jan-05 06:30N 27°41' W 090°52'4 8.1
2018-Jan-05 05:59N 27°40' W 090°56'4 8.1
2018-Jan-05 05:30N 27°39' W 091°01'4 8.0
2018-Jan-05 04:59N 27°39' W 091°05'4 8.0
2018-Jan-05 04:27N 27°38' W 091°10'6 8.0
2018-Jan-05 03:44N 27°37' W 091°16'2 8.1
2018-Jan-05 03:29N 27°37' W 091°19'2 3.1
2018-Jan-05 02:43N 27°36' W 091°21'0 0.0
2018-Jan-05 02:30N 27°36' W 091°21'0 0.0
2018-Jan-05 01:55N 27°36' W 091°21'0 0.0
2018-Jan-05 01:18N 27°36' W 091°21'0 0.0
2018-Jan-05 01:00N 27°36' W 091°21'0 0.0
2018-Jan-05 00:29N 27°36' W 091°21'0 0.0
2018-Jan-04 23:59N 27°36' W 091°21'0 0.0
2018-Jan-04 23:29N 27°36' W 091°21'0 0.0
2018-Jan-04 22:52N 27°36' W 091°21'0 0.0
2018-Jan-04 22:28N 27°36' W 091°21'0 0.0
2018-Jan-04 21:44N 27°36' W 091°21'0 0.0
2018-Jan-04 21:18N 27°36' W 091°21'0 0.0
2018-Jan-04 20:55N 27°36' W 091°21'0 0.0
2018-Jan-04 20:14N 27°36' W 091°21'0 0.0
2018-Jan-03 21:08N 27°36' W 091°21'0 0.0
2018-Jan-03 20:58N 27°36' W 091°21'0 0.0
2018-Jan-03 20:30N 27°36' W 091°21'0 0.0
2018-Jan-03 19:56N 27°36' W 091°21'0 0.0
2018-Jan-03 19:24N 27°36' W 091°21'0 0.0
2018-Jan-03 18:57N 27°36' W 091°21'0 0.0
2018-Jan-03 18:27N 27°36' W 091°21'0 0.0
2018-Jan-03 18:01N 27°36' W 091°21'0 0.0
2018-Jan-03 17:22N 27°36' W 091°21'0 0.0
2018-Jan-03 17:00N 27°36' W 091°21'0 0.0
2018-Jan-03 16:28N 27°36' W 091°21'0 0.0
2018-Jan-03 15:24N 27°36' W 091°21'0 0.0
2018-Jan-02 14:01N 27°36' W 091°21'0 0.0
2018-Jan-02 13:57N 27°36' W 091°21'0 0.0
2018-Jan-02 13:27N 27°36' W 091°21'0 0.0
2018-Jan-02 13:00N 27°36' W 091°21'0 0.0
2018-Jan-02 12:18N 27°36' W 091°21'0 0.0
2018-Jan-02 11:48N 27°36' W 091°21'0 0.0
2018-Jan-02 11:29N 27°36' W 091°21'0 0.0
2018-Jan-02 11:00N 27°36' W 091°21'0 0.0
2018-Jan-02 10:28N 27°36' W 091°21'0 0.0
2018-Jan-02 09:53N 27°36' W 091°21'0 0.0
2018-Jan-02 09:28N 27°36' W 091°21'0 0.0
2018-Jan-02 02:53N 27°36' W 091°21'0 0.1
2018-Jan-02 02:29N 27°36' W 091°21'0 0.0
2018-Jan-02 01:59N 27°36' W 091°21'0 0.0
2018-Jan-02 01:30N 27°36' W 091°21'0 0.0
2018-Jan-02 00:58N 27°36' W 091°21'0 0.0
2018-Jan-02 00:29N 27°36' W 091°21'0 0.0
2018-Jan-01 23:59N 27°36' W 091°21'0 0.0
2018-Jan-01 23:28N 27°36' W 091°21'0 0.1
2018-Jan-01 22:58N 27°36' W 091°21'0 0.0
2018-Jan-01 22:30N 27°36' W 091°21'0 0.0
2018-Jan-01 22:01N 27°36' W 091°21'0 0.0
2018-Jan-01 21:30N 27°36' W 091°21'0 0.0
2018-Jan-01 20:59N 27°36' W 091°21'0 0.0
2018-Jan-01 20:31N 27°36' W 091°21'0 0.0
2018-Jan-01 19:59N 27°36' W 091°21'0 0.0
2018-Jan-01 19:30N 27°36' W 091°21'0 0.0
2018-Jan-01 19:00N 27°36' W 091°21'0 0.0
2018-Jan-01 18:29N 27°36' W 091°21'0 0.0
2018-Jan-01 17:59N 27°36' W 091°21'0 0.0
2018-Jan-01 17:29N 27°36' W 091°21'0 0.0
2018-Jan-01 03:52N 27°36' W 091°21'0 0.0
2018-Jan-01 03:24N 27°36' W 091°21'0 0.0
2018-Jan-01 02:59N 27°36' W 091°21'0 0.0
2018-Jan-01 01:08N 27°36' W 091°21'0 0.0
2017-Dec-31 16:37N 27°36' W 091°21'0 0.0
2017-Dec-31 16:30N 27°36' W 091°21'0 0.0
2017-Dec-31 16:00N 27°36' W 091°21'0 0.0
2017-Dec-31 15:23N 27°36' W 091°21'0 0.0
2017-Dec-31 14:57N 27°36' W 091°21'0 0.0
2017-Dec-31 14:22N 27°36' W 091°21'0 0.0
2017-Dec-31 14:00N 27°36' W 091°21'0 0.0
2017-Dec-31 13:28N 27°36' W 091°21'0 0.0
2017-Dec-31 12:20N 27°36' W 091°21'0 0.0
2017-Dec-31 07:22N 27°36' W 091°21'0 0.0
2017-Dec-31 06:59N 27°36' W 091°21'0 0.0
2017-Dec-31 06:29N 27°36' W 091°21'0 0.0
2017-Dec-31 06:00N 27°36' W 091°21'0 0.0
2017-Dec-31 05:29N 27°36' W 091°21'0 0.0
2017-Dec-31 04:59N 27°36' W 091°21'0 0.0
2017-Dec-31 04:30N 27°36' W 091°21'0 0.0
2017-Dec-31 04:00N 27°36' W 091°21'0 0.0
2017-Dec-31 03:30N 27°36' W 091°21'0 0.0
2017-Dec-31 03:01N 27°36' W 091°21'0 0.0
2017-Dec-31 02:29N 27°36' W 091°21'0 0.0
2017-Dec-31 01:59N 27°36' W 091°21'  
Track history (hours):
 
Tides and Currents Weather Stations Pressure Air Temp Water Temp Dewpoint Dewpoint Depression Visibility Wind Speed Wind Dir Waves Ship Positions

Noble Bob Douglas

Last reported at 2018-Jan-05 09:37 UTC. Time now 2018-Jan-22 12:35 UTC.
Position N 27°46' W 090°24'.
Warning: this ship's position is 17 days out of date.

Length 229 m; draft 11 m.

Type: Other ship. MMSI: 636015383.

Date/timePositionNaut miles runAvg speedWind from/ knotsBaromVisibWave heightAir tempDewpointWater temp
2018-Jan-05 09:37N 27°46' W 090°24'1 7.8
2018-Jan-05 09:29N 27°45' W 090°25'4 7.9
2018-Jan-05 08:59N 27°45' W 090°30'4 8.0
2018-Jan-05 08:29N 27°44' W 090°34'4 8.0
2018-Jan-05 07:59N 27°43' W 090°38'4 8.0
2018-Jan-05 07:30N 27°42' W 090°43'4 8.1
2018-Jan-05 07:00N 27°42' W 090°47'4 8.1
2018-Jan-05 06:30N 27°41' W 090°52'4 8.1
2018-Jan-05 05:59N 27°40' W 090°56'4 8.1
2018-Jan-05 05:30N 27°39' W 091°01'4 8.0
2018-Jan-05 04:59N 27°39' W 091°05'4 8.0
2018-Jan-05 04:27N 27°38' W 091°10'6 8.0
2018-Jan-05 03:44N 27°37' W 091°16'2 8.1
2018-Jan-05 03:29N 27°37' W 091°19'2 3.1
2018-Jan-05 02:43N 27°36' W 091°21'0 0.0
2018-Jan-05 02:30N 27°36' W 091°21'0 0.0
2018-Jan-05 01:55N 27°36' W 091°21'0 0.0
2018-Jan-05 01:18N 27°36' W 091°21'0 0.0
2018-Jan-05 01:00N 27°36' W 091°21'0 0.0
2018-Jan-05 00:29N 27°36' W 091°21'0 0.0
2018-Jan-04 23:59N 27°36' W 091°21'0 0.0
2018-Jan-04 23:29N 27°36' W 091°21'0 0.0
2018-Jan-04 22:52N 27°36' W 091°21'0 0.0
2018-Jan-04 22:28N 27°36' W 091°21'0 0.0
2018-Jan-04 21:44N 27°36' W 091°21'0 0.0
2018-Jan-04 21:18N 27°36' W 091°21'0 0.0
2018-Jan-04 20:55N 27°36' W 091°21'0 0.0
2018-Jan-04 20:14N 27°36' W 091°21'0 0.0
2018-Jan-03 21:08N 27°36' W 091°21'0 0.0
2018-Jan-03 20:58N 27°36' W 091°21'0 0.0
2018-Jan-03 20:30N 27°36' W 091°21'0 0.0
2018-Jan-03 19:56N 27°36' W 091°21'0 0.0
2018-Jan-03 19:24N 27°36' W 091°21'0 0.0
2018-Jan-03 18:57N 27°36' W 091°21'0 0.0
2018-Jan-03 18:27N 27°36' W 091°21'0 0.0
2018-Jan-03 18:01N 27°36' W 091°21'0 0.0
2018-Jan-03 17:22N 27°36' W 091°21'0 0.0
2018-Jan-03 17:00N 27°36' W 091°21'0 0.0
2018-Jan-03 16:28N 27°36' W 091°21'0 0.0
2018-Jan-03 15:24N 27°36' W 091°21'0 0.0
2018-Jan-02 14:01N 27°36' W 091°21'0 0.0
2018-Jan-02 13:57N 27°36' W 091°21'0 0.0
2018-Jan-02 13:27N 27°36' W 091°21'0 0.0
2018-Jan-02 13:00N 27°36' W 091°21'0 0.0
2018-Jan-02 12:18N 27°36' W 091°21'0 0.0
2018-Jan-02 11:48N 27°36' W 091°21'0 0.0
2018-Jan-02 11:29N 27°36' W 091°21'0 0.0
2018-Jan-02 11:00N 27°36' W 091°21'0 0.0
2018-Jan-02 10:28N 27°36' W 091°21'0 0.0
2018-Jan-02 09:53N 27°36' W 091°21'0 0.0
2018-Jan-02 09:28N 27°36' W 091°21'0 0.0
2018-Jan-02 02:53N 27°36' W 091°21'0 0.1
2018-Jan-02 02:29N 27°36' W 091°21'0 0.0
2018-Jan-02 01:59N 27°36' W 091°21'0 0.0
2018-Jan-02 01:30N 27°36' W 091°21'0 0.0
2018-Jan-02 00:58N 27°36' W 091°21'0 0.0
2018-Jan-02 00:29N 27°36' W 091°21'0 0.0
2018-Jan-01 23:59N 27°36' W 091°21'0 0.0
2018-Jan-01 23:28N 27°36' W 091°21'0 0.1
2018-Jan-01 22:58N 27°36' W 091°21'0 0.0
2018-Jan-01 22:30N 27°36' W 091°21'0 0.0
2018-Jan-01 22:01N 27°36' W 091°21'0 0.0
2018-Jan-01 21:30N 27°36' W 091°21'0 0.0
2018-Jan-01 20:59N 27°36' W 091°21'0 0.0
2018-Jan-01 20:31N 27°36' W 091°21'0 0.0
2018-Jan-01 19:59N 27°36' W 091°21'0 0.0
2018-Jan-01 19:30N 27°36' W 091°21'0 0.0
2018-Jan-01 19:00N 27°36' W 091°21'0 0.0
2018-Jan-01 18:29N 27°36' W 091°21'0 0.0
2018-Jan-01 17:59N 27°36' W 091°21'0 0.0
2018-Jan-01 17:29N 27°36' W 091°21'0 0.0
2018-Jan-01 03:52N 27°36' W 091°21'0 0.0
2018-Jan-01 03:24N 27°36' W 091°21'0 0.0
2018-Jan-01 02:59N 27°36' W 091°21'0 0.0
2018-Jan-01 01:08N 27°36' W 091°21'0 0.0
2017-Dec-31 16:37N 27°36' W 091°21'0 0.0
2017-Dec-31 16:30N 27°36' W 091°21'0 0.0
2017-Dec-31 16:00N 27°36' W 091°21'0 0.0
2017-Dec-31 15:23N 27°36' W 091°21'0 0.0
2017-Dec-31 14:57N 27°36' W 091°21'0 0.0
2017-Dec-31 14:22N 27°36' W 091°21'0 0.0
2017-Dec-31 14:00N 27°36' W 091°21'0 0.0
2017-Dec-31 13:28N 27°36' W 091°21'0 0.0
2017-Dec-31 12:20N 27°36' W 091°21'0 0.0
2017-Dec-31 07:22N 27°36' W 091°21'0 0.0
2017-Dec-31 06:59N 27°36' W 091°21'0 0.0
2017-Dec-31 06:29N 27°36' W 091°21'0 0.0
2017-Dec-31 06:00N 27°36' W 091°21'0 0.0
2017-Dec-31 05:29N 27°36' W 091°21'0 0.0
2017-Dec-31 04:59N 27°36' W 091°21'0 0.0
2017-Dec-31 04:30N 27°36' W 091°21'0 0.0
2017-Dec-31 04:00N 27°36' W 091°21'0 0.0
2017-Dec-31 03:30N 27°36' W 091°21'0 0.0
2017-Dec-31 03:01N 27°36' W 091°21'0 0.0
2017-Dec-31 02:29N 27°36' W 091°21'0 0.0
2017-Dec-31 01:59N 27°36' W 091°21'  

Dump ship's entire track history